Time;durP1;ratioP1;P1;durP2;ratioP2;P2;SDS_P1;SDS_P2;PMS_P1;PMS_P2;Temp;Humidity;BMP_temperature;BMP_pressure;BME280_temperature;BME280_humidity;BME280_pressure;Samples;Min_cycle;Max_cycle;Signal;HPM_P1;HPM_P2
2022/01/04 00:01:26;;;;;;;26.40;4.85;;;7.40;99.90;;;;;;5113916;28;20039;-86
2022/01/04 00:03:52;;;;;;;21.08;3.83;;;7.40;99.90;;;;;;5113870;28;20547;-87
2022/01/04 00:06:17;;;;;;;19.77;3.72;;;7.40;99.90;;;;;;5112839;28;20042;-79
2022/01/04 00:08:43;;;;;;;27.63;5.10;;;7.30;99.90;;;;;;5097103;28;20069;-80
2022/01/04 00:11:20;;;;;;;21.33;4.22;;;7.30;99.90;;;;;;5113557;28;20406;-80
2022/01/04 00:13:46;;;;;;;17.30;3.85;;;7.30;99.90;;;;;;5113674;28;20074;-82
2022/01/04 00:16:13;;;;;;;27.23;4.68;;;7.30;99.90;;;;;;5113397;28;20088;-79
2022/01/04 00:18:39;;;;;;;28.98;4.88;;;7.20;99.90;;;;;;5113871;28;20043;-79
2022/01/04 00:21:05;;;;;;;22.05;4.57;;;7.20;99.90;;;;;;5112887;28;20092;-79
2022/01/04 00:23:31;;;;;;;30.50;4.20;;;7.20;99.90;;;;;;5113677;28;20031;-79
2022/01/04 00:25:58;;;;;;;24.50;4.95;;;7.20;99.90;;;;;;5102532;28;20092;-89
2022/01/04 00:28:24;;;;;;;27.33;3.95;;;7.20;99.90;;;;;;5083622;28;20079;-79
2022/01/04 00:30:50;;;;;;;26.02;4.85;;;7.20;99.90;;;;;;5102757;28;20039;-79
2022/01/04 00:33:17;;;;;;;31.45;4.55;;;7.20;99.90;;;;;;5104694;28;20095;-80
2022/01/04 00:35:43;;;;;;;29.80;5.28;;;7.20;99.90;;;;;;5084620;28;20044;-79
2022/01/04 00:38:09;;;;;;;29.20;5.25;;;7.20;99.90;;;;;;5102923;28;20109;-79
2022/01/04 00:40:35;;;;;;;21.17;4.50;;;7.20;99.90;;;;;;5088017;28;20063;-79
2022/01/04 00:43:01;;;;;;;30.42;6.10;;;7.20;99.90;;;;;;5088921;28;20051;-89
2022/01/04 00:45:31;;;;;;;28.38;6.28;;;7.30;99.90;;;;;;5085019;28;20044;-79
2022/01/04 00:50:24;;;;;;;25.58;5.75;;;7.30;99.90;;;;;;5104240;28;20507;-80
2022/01/04 00:52:51;;;;;;;25.73;5.30;;;7.30;99.90;;;;;;5105489;28;20065;-79
2022/01/04 00:55:17;;;;;;;24.25;5.10;;;7.30;99.90;;;;;;5085991;28;20078;-81
2022/01/04 00:57:43;;;;;;;23.23;4.88;;;7.30;99.90;;;;;;5102467;28;20396;-80
2022/01/04 01:00:12;;;;;;;23.77;5.00;;;7.30;99.90;;;;;;5085182;28;20040;-79
2022/01/04 01:02:38;;;;;;;34.72;5.50;;;7.40;99.90;;;;;;5104630;28;20486;-79
2022/01/04 01:05:05;;;;;;;23.92;4.43;;;7.40;99.90;;;;;;5104748;28;20086;-79
2022/01/04 01:07:30;;;;;;;19.50;3.80;;;7.40;99.90;;;;;;5084658;28;20533;-80
2022/01/04 01:10:19;;;;;;;28.40;5.80;;;7.40;99.90;;;;;;5084116;28;20048;-78
2022/01/04 01:12:44;;;;;;;27.48;5.28;;;7.40;99.90;;;;;;5095300;28;20040;-79
2022/01/04 01:15:11;;;;;;;21.98;4.53;;;7.30;99.90;;;;;;5101811;28;20434;-83
2022/01/04 01:17:37;;;;;;;32.38;5.07;;;7.40;99.90;;;;;;5104637;28;20046;-81
2022/01/04 01:20:05;;;;;;;27.73;4.63;;;7.40;99.90;;;;;;5088123;28;20032;-82
2022/01/04 01:22:31;;;;;;;25.08;5.25;;;7.40;99.90;;;;;;5084367;28;20067;-85
2022/01/04 01:24:56;;;;;;;27.73;4.78;;;7.40;99.90;;;;;;5087109;28;20083;-84
2022/01/04 01:27:22;;;;;;;19.60;4.35;;;7.40;99.90;;;;;;5085642;28;20059;-81
2022/01/04 01:29:47;;;;;;;23.40;5.00;;;8.50;99.90;;;;;;5084039;28;20044;-80
2022/01/04 01:32:13;;;;;;;33.65;6.03;;;7.50;99.90;;;;;;5085137;28;20502;-79
2022/01/04 01:34:39;;;;;;;26.95;4.20;;;7.50;99.90;;;;;;5104554;28;20390;-79
2022/01/04 01:37:05;;;;;;;27.08;5.30;;;7.50;99.90;;;;;;5104112;28;20464;-79
2022/01/04 01:39:30;;;;;;;30.17;6.40;;;7.60;99.90;;;;;;5084298;28;20043;-79
2022/01/04 01:41:56;;;;;;;27.30;5.32;;;7.50;99.90;;;;;;5100703;28;20100;-80
2022/01/04 01:44:23;;;;;;;28.50;4.85;;;7.50;99.90;;;;;;5084827;28;20411;-82
2022/01/04 01:46:48;;;;;;;24.42;4.95;;;7.50;99.90;;;;;;5104907;28;20046;-87
2022/01/04 01:49:14;;;;;;;27.63;5.25;;;7.60;99.90;;;;;;5103537;28;20035;-83
2022/01/04 01:51:40;;;;;;;28.25;4.93;;;7.60;99.90;;;;;;5083282;28;20048;-80
2022/01/04 01:54:05;;;;;;;29.48;5.13;;;7.60;99.90;;;;;;5100700;28;20062;-83
2022/01/04 01:56:31;;;;;;;31.35;4.85;;;7.60;99.90;;;;;;5104120;28;20089;-79
2022/01/04 01:58:58;;;;;;;26.35;5.25;;;7.60;99.90;;;;;;5103539;28;20074;-80
2022/01/04 02:01:23;;;;;;;34.88;5.68;;;7.50;99.90;;;;;;5101554;28;20040;-79
2022/01/04 02:03:49;;;;;;;21.13;4.65;;;7.50;99.90;;;;;;5083603;28;20054;-88
2022/01/04 02:06:15;;;;;;;25.00;5.25;;;7.60;99.90;;;;;;5101199;28;20445;-88
2022/01/04 02:08:41;;;;;;;33.30;5.45;;;7.50;99.90;;;;;;5104014;28;20039;-79
2022/01/04 02:11:08;;;;;;;26.95;5.20;;;7.50;99.90;;;;;;5104008;28;20039;-85
2022/01/04 02:13:34;;;;;;;27.00;5.05;;;7.50;99.90;;;;;;5091526;28;20032;-81
2022/01/04 02:16:02;;;;;;;30.02;8.10;;;7.40;99.90;;;;;;5100128;28;20106;-84
2022/01/04 02:18:28;;;;;;;33.80;5.93;;;7.50;99.90;;;;;;5103455;28;20081;-79
2022/01/04 02:20:54;;;;;;;24.63;5.07;;;7.50;99.90;;;;;;5102986;28;20515;-79
2022/01/04 02:23:19;;;;;;;31.63;5.45;;;7.60;99.90;;;;;;5102050;28;20040;-80
2022/01/04 02:25:46;;;;;;;39.45;5.65;;;7.60;99.90;;;;;;5099746;28;20046;-81
2022/01/04 02:28:12;;;;;;;30.50;5.28;;;7.50;99.90;;;;;;5083051;28;20097;-81
2022/01/04 02:30:38;;;;;;;22.33;5.03;;;7.60;99.90;;;;;;5103466;28;20043;-82
2022/01/04 02:33:03;;;;;;;30.63;5.90;;;7.60;99.90;;;;;;5102891;28;20058;-79
2022/01/04 02:35:31;;;;;;;30.80;5.30;;;7.60;99.90;;;;;;5100300;28;20028;-79
2022/01/04 02:37:58;;;;;;;40.88;6.32;;;7.60;99.90;;;;;;5100423;28;20127;-88
2022/01/04 02:40:25;;;;;;;31.42;5.43;;;7.70;99.90;;;;;;5101262;28;20055;-89
2022/01/04 02:42:51;;;;;;;24.05;4.70;;;7.70;99.90;;;;;;5103208;28;20105;-79
2022/01/04 02:45:17;;;;;;;29.60;5.40;;;7.70;99.90;;;;;;5102102;28;20529;-86
2022/01/04 02:47:43;;;;;;;27.75;5.13;;;7.80;99.90;;;;;;5099452;28;20051;-80
2022/01/04 02:50:09;;;;;;;33.83;7.05;;;7.70;99.90;;;;;;5082735;28;20044;-79
2022/01/04 02:52:35;;;;;;;32.13;5.70;;;7.60;99.90;;;;;;5091961;28;20070;-82
2022/01/04 02:55:07;;;;;;;32.53;6.07;;;7.70;99.90;;;;;;5097405;28;20040;-79
2022/01/04 02:57:34;;;;;;;24.98;5.00;;;7.70;99.90;;;;;;5099571;28;20036;-86
2022/01/04 03:00:00;;;;;;;22.83;6.15;;;7.70;99.90;;;;;;5099536;28;20040;-80
2022/01/04 03:02:26;;;;;;;25.77;4.05;;;7.70;99.90;;;;;;5101288;28;20059;-79
2022/01/04 03:04:52;;;;;;;37.45;5.88;;;7.70;99.90;;;;;;5102620;28;20040;-89
2022/01/04 03:07:18;;;;;;;28.60;6.13;;;7.80;99.90;;;;;;5101480;28;20047;-79
2022/01/04 03:09:43;;;;;;;30.85;6.57;;;7.70;99.90;;;;;;5099315;28;20054;-80
2022/01/04 03:12:09;;;;;;;31.77;6.65;;;7.80;99.90;;;;;;5099504;28;20554;-79
2022/01/04 03:14:35;;;;;;;33.78;6.15;;;7.70;99.90;;;;;;5099156;28;20040;-79
2022/01/04 03:17:01;;;;;;;34.50;5.88;;;7.70;99.90;;;;;;5081459;28;20052;-80
2022/01/04 03:19:27;;;;;;;35.75;5.60;;;8.50;99.90;;;;;;5101878;28;20043;-79
2022/01/04 03:21:53;;;;;;;35.17;5.80;;;7.70;99.90;;;;;;5102589;28;20097;-90
2022/01/04 03:24:18;;;;;;;30.50;6.38;;;7.70;99.90;;;;;;5083389;28;20390;-79
2022/01/04 03:26:44;;;;;;;20.40;4.90;;;7.70;99.90;;;;;;5096423;28;20132;-81
2022/01/04 03:29:13;;;;;;;26.30;5.68;;;7.80;99.90;;;;;;5099133;28;20040;-79
2022/01/04 03:31:39;;;;;;;26.60;5.18;;;7.70;99.90;;;;;;5101473;28;20044;-79
2022/01/04 03:34:05;;;;;;;23.40;4.90;;;7.70;99.90;;;;;;5101908;28;20035;-86
2022/01/04 03:36:32;;;;;;;30.58;5.82;;;7.80;99.90;;;;;;5098495;28;20474;-89
2022/01/04 03:38:58;;;;;;;37.53;6.55;;;9.30;99.90;;;;;;5082149;28;20460;-84
2022/01/04 03:41:26;;;;;;;23.98;5.82;;;7.70;99.90;;;;;;5100613;28;20419;-79
2022/01/04 03:43:52;;;;;;;26.85;5.15;;;7.70;99.90;;;;;;5101344;28;20074;-78
2022/01/04 03:46:18;;;;;;;24.00;5.60;;;7.80;99.90;;;;;;5101058;28;20040;-78
2022/01/04 03:48:44;;;;;;;27.70;5.57;;;7.70;99.90;;;;;;5099116;28;20124;-82
2022/01/04 03:51:11;;;;;;;25.77;5.97;;;7.70;99.90;;;;;;5098051;28;20544;-81
2022/01/04 03:53:38;;;;;;;26.65;4.95;;;7.70;99.90;;;;;;5101875;28;20116;-80
2022/01/04 03:56:04;;;;;;;31.35;6.88;;;7.70;99.90;;;;;;5085480;28;20052;-87
2022/01/04 03:58:30;;;;;;;27.83;6.18;;;7.80;99.90;;;;;;5098882;28;20044;-87
2022/01/04 04:00:57;;;;;;;34.38;6.03;;;7.70;99.90;;;;;;5098591;28;20044;-79
2022/01/04 04:03:23;;;;;;;33.67;6.25;;;7.70;99.90;;;;;;5100362;28;20047;-88
2022/01/04 04:05:49;;;;;;;25.35;6.78;;;7.70;99.90;;;;;;5085648;28;20047;-82
2022/01/04 04:08:15;;;;;;;32.38;6.53;;;7.70;99.90;;;;;;5106059;28;20059;-80
2022/01/04 04:10:41;;;;;;;32.00;7.40;;;7.70;99.90;;;;;;5102795;28;20039;-79
2022/01/04 04:13:06;;;;;;;25.30;5.70;;;7.70;99.90;;;;;;5103331;28;20051;-79
2022/01/04 04:15:32;;;;;;;28.27;7.38;;;7.80;99.90;;;;;;5105338;28;20040;-78
2022/01/04 04:17:58;;;;;;;27.02;6.05;;;7.80;99.90;;;;;;5106118;28;20035;-78
2022/01/04 04:20:23;;;;;;;27.67;7.95;;;7.70;99.90;;;;;;5103673;28;20112;-78
2022/01/04 04:22:49;;;;;;;28.73;6.95;;;7.70;99.90;;;;;;5103097;28;20040;-89
2022/01/04 04:25:15;;;;;;;29.90;6.05;;;7.90;99.90;;;;;;5108066;28;20077;-80
2022/01/04 04:27:40;;;;;;;29.70;7.45;;;7.70;99.90;;;;;;5084761;28;20130;-79
2022/01/04 04:30:08;;;;;;;39.47;8.40;;;7.70;99.90;;;;;;5102666;28;20055;-88
2022/01/04 04:32:33;;;;;;;30.48;8.52;;;7.70;99.90;;;;;;5088310;28;20127;-82
2022/01/04 04:34:59;;;;;;;27.55;7.85;;;7.70;99.90;;;;;;5088143;28;20131;-79
2022/01/04 04:37:25;;;;;;;31.35;7.80;;;7.80;99.90;;;;;;5103889;28;20040;-81
2022/01/04 04:39:50;;;;;;;37.95;9.05;;;7.80;99.90;;;;;;5084884;28;20048;-79
2022/01/04 04:42:16;;;;;;;31.05;7.65;;;8.80;99.90;;;;;;5103650;28;20499;-84
2022/01/04 04:44:43;;;;;;;30.48;8.70;;;7.70;99.90;;;;;;5105240;28;20415;-79
2022/01/04 04:47:09;;;;;;;32.13;7.45;;;7.70;99.90;;;;;;5104731;28;20052;-81
2022/01/04 04:49:35;;;;;;;39.88;9.60;;;7.60;99.90;;;;;;5102157;28;20067;-84
2022/01/04 04:52:00;;;;;;;38.83;9.25;;;7.70;99.90;;;;;;5085389;28;20135;-80
2022/01/04 04:54:29;;;;;;;36.92;9.70;;;7.60;99.90;;;;;;5102996;28;20435;-80
2022/01/04 04:56:54;;;;;;;37.95;10.10;;;7.60;99.90;;;;;;5105474;28;20124;-79
2022/01/04 04:59:20;;;;;;;37.85;8.68;;;7.60;99.90;;;;;;5104104;28;20082;-82
2022/01/04 05:01:46;;;;;;;30.50;10.02;;;7.70;99.90;;;;;;5101578;28;20048;-79
2022/01/04 05:04:11;;;;;;;27.58;10.50;;;7.60;99.90;;;;;;5084464;28;20044;-88
2022/01/04 05:06:37;;;;;;;36.17;10.38;;;7.60;99.90;;;;;;5093310;28;20517;-80
2022/01/04 05:09:02;;;;;;;33.70;10.50;;;7.60;99.90;;;;;;5084413;28;20044;-83
2022/01/04 05:11:29;;;;;;;36.33;11.23;;;7.60;99.90;;;;;;5087062;28;20032;-79
2022/01/04 05:13:55;;;;;;;32.10;9.98;;;7.60;99.90;;;;;;5104717;28;20048;-78
2022/01/04 05:16:21;;;;;;;41.65;11.90;;;7.60;99.90;;;;;;5086155;28;20043;-79
2022/01/04 05:18:46;;;;;;;29.67;11.32;;;7.60;99.90;;;;;;5101764;28;20040;-82
2022/01/04 05:21:12;;;;;;;31.98;11.27;;;7.60;99.90;;;;;;5084566;28;20131;-81
2022/01/04 05:23:37;;;;;;;40.30;12.15;;;7.60;99.90;;;;;;5092282;28;20076;-79
2022/01/04 05:26:03;;;;;;;34.85;11.02;;;7.60;99.90;;;;;;5101223;28;20052;-80
2022/01/04 05:28:28;;;;;;;41.65;10.88;;;7.60;99.90;;;;;;5104984;28;20088;-87
2022/01/04 05:30:54;;;;;;;38.03;12.02;;;7.60;99.90;;;;;;5104200;28;20039;-79
2022/01/04 05:33:19;;;;;;;26.98;10.15;;;7.60;99.90;;;;;;5103517;28;20130;-81
2022/01/04 05:35:47;;;;;;;40.08;11.65;;;7.60;99.90;;;;;;5101367;28;20048;-78
2022/01/04 05:38:13;;;;;;;42.22;11.98;;;7.60;99.90;;;;;;5100666;28;20545;-80
2022/01/04 05:40:38;;;;;;;33.53;11.52;;;7.60;99.90;;;;;;5104962;28;20047;-80
2022/01/04 05:43:04;;;;;;;33.72;10.50;;;7.60;99.90;;;;;;5103930;28;20042;-81
2022/01/04 05:45:30;;;;;;;38.47;11.18;;;7.60;99.90;;;;;;5101647;28;20391;-79
2022/01/04 05:47:56;;;;;;;36.30;10.32;;;7.60;99.90;;;;;;5100906;28;20052;-79
2022/01/04 05:50:22;;;;;;;41.00;10.63;;;7.50;99.90;;;;;;5084421;28;20054;-78
2022/01/04 05:52:47;;;;;;;34.53;10.18;;;7.60;99.90;;;;;;5104696;28;20050;-79
2022/01/04 05:55:13;;;;;;;33.20;9.60;;;7.60;99.90;;;;;;5086949;28;20395;-79
2022/01/04 05:57:38;;;;;;;36.92;9.57;;;7.60;99.90;;;;;;5099845;28;20444;-80
2022/01/04 06:00:06;;;;;;;29.50;8.52;;;7.50;99.90;;;;;;5101117;28;20044;-78
2022/01/04 06:02:31;;;;;;;38.90;9.07;;;7.60;99.90;;;;;;5086290;28;20055;-78
2022/01/04 06:04:57;;;;;;;31.92;9.30;;;7.60;99.90;;;;;;5102873;28;20051;-87
2022/01/04 06:07:22;;;;;;;37.67;9.15;;;7.60;99.90;;;;;;5102681;28;20395;-80
2022/01/04 06:09:51;;;;;;;32.03;9.07;;;7.60;99.90;;;;;;5100823;28;20070;-85
2022/01/04 06:15:11;;;;;;;33.30;8.40;;;7.60;99.90;;;;;;5072741;28;20087;-79
2022/01/04 06:17:42;;;;;;;27.60;7.03;;;7.50;99.90;;;;;;5083822;28;20044;-79
2022/01/04 06:20:14;;;;;;;33.05;7.88;;;7.50;99.90;;;;;;5099619;28;20040;-85
2022/01/04 06:22:40;;;;;;;38.17;8.68;;;7.50;99.90;;;;;;5092096;28;20056;-79
2022/01/04 06:25:11;;;;;;;28.92;7.90;;;7.60;99.90;;;;;;5087955;28;20599;-84
2022/01/04 06:27:37;;;;;;;27.33;7.78;;;7.60;99.90;;;;;;5100305;28;20047;-78
2022/01/04 06:30:04;;;;;;;28.92;9.25;;;7.60;99.90;;;;;;5099865;28;20036;-82
2022/01/04 06:32:30;;;;;;;32.20;9.35;;;7.60;99.90;;;;;;5101971;28;20614;-85
2022/01/04 06:34:55;;;;;;;33.22;8.35;;;7.70;99.90;;;;;;5103691;28;20130;-82
2022/01/04 06:37:21;;;;;;;39.78;8.27;;;7.60;99.90;;;;;;5102589;28;20047;-80
2022/01/04 06:39:47;;;;;;;31.08;8.23;;;7.60;99.90;;;;;;5099586;28;20067;-79
2022/01/04 06:42:13;;;;;;;36.22;7.65;;;7.60;99.90;;;;;;5100072;28;20040;-80
2022/01/04 06:44:41;;;;;;;23.52;7.05;;;7.50;99.90;;;;;;5085760;28;20051;-80
2022/01/04 06:47:07;;;;;;;27.58;8.07;;;7.50;99.90;;;;;;5085740;28;20051;-77
2022/01/04 06:49:32;;;;;;;30.52;7.65;;;7.60;99.90;;;;;;5100336;28;20036;-79
2022/01/04 06:51:58;;;;;;;25.52;6.78;;;7.60;99.90;;;;;;5100072;28;20476;-79
2022/01/04 06:54:23;;;;;;;26.02;7.65;;;7.70;99.90;;;;;;5100386;28;20074;-86
2022/01/04 06:56:49;;;;;;;21.67;6.80;;;7.60;99.90;;;;;;5086772;28;20085;-78
2022/01/04 06:59:16;;;;;;;31.42;8.10;;;7.60;99.90;;;;;;5086280;28;20071;-78
2022/01/04 07:01:42;;;;;;;26.85;7.72;;;7.60;99.90;;;;;;5098671;28;20036;-81
2022/01/04 07:04:08;;;;;;;23.05;7.03;;;7.50;99.90;;;;;;5099204;28;20086;-78
2022/01/04 07:06:34;;;;;;;25.00;8.07;;;7.50;99.90;;;;;;5103290;28;20091;-78
2022/01/04 07:09:00;;;;;;;21.48;6.57;;;7.50;99.90;;;;;;5103565;28;20073;-84
2022/01/04 07:11:26;;;;;;;25.13;5.85;;;7.50;99.90;;;;;;5101474;28;20522;-78
2022/01/04 07:13:52;;;;;;;28.25;7.38;;;7.50;99.90;;;;;;5099051;28;20044;-77
2022/01/04 07:16:18;;;;;;;21.63;6.63;;;7.50;99.90;;;;;;5099143;28;20099;-78
2022/01/04 07:18:48;;;;;;;22.55;6.35;;;7.50;99.90;;;;;;5103072;28;20067;-78
2022/01/04 07:21:16;;;;;;;22.88;5.75;;;7.40;99.90;;;;;;5103039;28;20043;-80
2022/01/04 07:23:42;;;;;;;27.02;5.60;;;7.40;99.90;;;;;;5073225;28;20480;-79
2022/01/04 07:26:11;;;;;;;31.02;11.30;;;7.40;99.90;;;;;;5099155;28;20066;-82
2022/01/04 07:28:47;;;;;;;30.48;6.85;;;7.40;99.90;;;;;;5084773;28;20122;-82
2022/01/04 07:31:14;;;;;;;32.78;7.30;;;7.50;99.90;;;;;;5085540;28;20032;-81
2022/01/04 07:33:40;;;;;;;28.20;6.95;;;7.50;99.90;;;;;;5082000;28;20032;-83
2022/01/04 07:36:07;;;;;;;31.67;6.63;;;7.50;99.90;;;;;;5098371;28;20510;-83
2022/01/04 07:38:36;;;;;;;31.00;6.75;;;7.50;99.90;;;;;;5101466;28;20093;-80
2022/01/04 07:41:04;;;;;;;26.15;6.05;;;7.40;99.90;;;;;;5101660;28;20395;-85
2022/01/04 07:43:29;;;;;;;41.47;7.13;;;7.50;99.90;;;;;;5099495;28;20054;-83
2022/01/04 07:45:55;;;;;;;23.50;5.03;;;7.50;99.90;;;;;;5081762;28;20036;-86
2022/01/04 07:48:21;;;;;;;17.20;3.33;;;7.50;99.90;;;;;;5082616;28;20051;-78
2022/01/04 07:50:47;;;;;;;10.48;2.20;;;7.50;99.90;;;;;;5101977;28;20044;-81
2022/01/04 07:53:12;;;;;;;6.88;1.42;;;7.40;99.90;;;;;;5103405;28;20046;-81
2022/01/04 07:55:38;;;;;;;10.60;1.98;;;7.40;99.90;;;;;;5098887;28;20043;-84
2022/01/04 07:58:04;;;;;;;8.23;1.77;;;7.40;99.90;;;;;;5098211;28;20052;-85
2022/01/04 08:00:29;;;;;;;10.10;2.08;;;7.30;99.90;;;;;;5100433;28;20079;-79
2022/01/04 08:02:55;;;;;;;9.93;2.05;;;7.30;99.90;;;;;;5102475;28;20386;-80
2022/01/04 08:05:22;;;;;;;9.48;1.88;;;7.30;99.90;;;;;;5100479;28;20047;-78
2022/01/04 08:07:49;;;;;;;12.88;2.10;;;8.20;99.90;;;;;;5098843;28;20059;-86
2022/01/04 08:10:15;;;;;;;10.35;1.50;;;7.10;99.90;;;;;;5099123;28;20051;-78
2022/01/04 08:12:41;;;;;;;5.90;1.27;;;7.10;99.90;;;;;;5101554;28;20035;-82
2022/01/04 08:15:08;;;;;;;7.00;1.80;;;7.10;99.90;;;;;;5101525;28;20047;-86
2022/01/04 08:17:36;;;;;;;8.27;1.77;;;7.20;99.90;;;;;;5082717;28;20051;-79
2022/01/04 08:20:03;;;;;;;5.93;1.45;;;7.10;99.90;;;;;;5098074;28;20430;-86
2022/01/04 08:22:32;;;;;;;8.63;2.20;;;7.10;99.90;;;;;;5083227;28;20492;-78
2022/01/04 08:25:05;;;;;;;9.05;2.50;;;7.10;99.90;;;;;;5083693;28;20513;-79
2022/01/04 08:27:31;;;;;;;8.30;2.33;;;7.10;99.90;;;;;;5085415;28;20497;-85
2022/01/04 08:29:57;;;;;;;12.40;2.28;;;7.00;99.90;;;;;;5098378;28;20067;-83
2022/01/04 08:32:23;;;;;;;14.05;2.80;;;7.10;99.90;;;;;;5081418;28;20052;-84
2022/01/04 08:34:49;;;;;;;13.45;2.85;;;7.10;99.90;;;;;;5085126;28;20071;-78
2022/01/04 08:37:16;;;;;;;16.77;3.08;;;7.00;99.90;;;;;;5102478;28;20562;-78
2022/01/04 08:39:42;;;;;;;19.33;3.63;;;7.00;99.90;;;;;;5081101;28;20396;-79
2022/01/04 08:42:07;;;;;;;16.27;3.58;;;7.00;99.90;;;;;;5098279;28;20051;-86
2022/01/04 08:44:33;;;;;;;16.55;3.60;;;7.00;99.90;;;;;;5100039;28;20036;-78
2022/01/04 08:46:59;;;;;;;17.17;4.03;;;7.00;99.90;;;;;;5101090;28;20051;-80
2022/01/04 08:49:25;;;;;;;17.20;2.80;;;7.00;99.90;;;;;;5100838;28;20040;-78
2022/01/04 08:51:51;;;;;;;21.55;3.90;;;7.00;99.90;;;;;;5099497;28;20052;-79
2022/01/04 08:54:17;;;;;;;20.52;3.95;;;7.00;99.90;;;;;;5084363;28;20514;-79
2022/01/04 08:56:43;;;;;;;19.13;5.95;;;7.00;99.90;;;;;;5088601;28;20046;-79
2022/01/04 08:59:10;;;;;;;20.35;4.90;;;7.00;99.90;;;;;;5105483;28;20035;-85
2022/01/04 09:01:36;;;;;;;7.03;1.10;;;7.00;99.90;;;;;;5102560;28;20067;-80
2022/01/04 09:04:02;;;;;;;4.93;0.82;;;7.00;99.90;;;;;;5084631;28;20044;-86
2022/01/04 09:06:28;;;;;;;7.10;1.10;;;6.90;99.90;;;;;;5085995;28;20046;-87
2022/01/04 09:08:57;;;;;;;3.80;0.50;;;6.90;99.90;;;;;;5104599;28;20130;-79
2022/01/04 09:11:23;;;;;;;6.43;1.10;;;6.80;99.90;;;;;;5087682;28;20042;-79
2022/01/04 09:13:54;;;;;;;8.77;1.33;;;6.70;99.90;;;;;;5101365;28;20040;-85
2022/01/04 09:19:03;;;;;;;10.40;0.85;;;6.70;99.90;;;;;;5096089;28;20460;-80
2022/01/04 09:21:29;;;;;;;3.50;0.60;;;6.70;99.90;;;;;;5085112;28;20079;-79
2022/01/04 09:23:57;;;;;;;4.22;0.57;;;6.70;99.90;;;;;;5087766;28;20035;-79
2022/01/04 09:26:24;;;;;;;6.57;1.10;;;6.60;99.90;;;;;;5103683;28;20064;-84
2022/01/04 09:28:50;;;;;;;9.20;0.50;;;6.60;99.90;;;;;;5104148;28;20035;-79
2022/01/04 09:31:18;;;;;;;3.92;0.55;;;6.60;99.90;;;;;;5105160;28;20096;-83
2022/01/04 09:33:44;;;;;;;75.10;7.80;;;6.60;99.90;;;;;;5084865;28;20032;-79
2022/01/04 09:36:09;;;;;;;72.38;7.10;;;6.50;99.90;;;;;;5100666;28;20483;-83
2022/01/04 09:38:35;;;;;;;61.65;5.65;;;6.50;99.90;;;;;;5102962;28;20059;-79
2022/01/04 09:41:01;;;;;;;15.88;2.13;;;6.50;99.90;;;;;;5104548;28;20096;-81
2022/01/04 09:43:26;;;;;;;9.95;0.80;;;6.50;99.90;;;;;;5102944;28;20126;-85
2022/01/04 09:45:53;;;;;;;6.55;0.50;;;6.50;99.90;;;;;;5101108;28;20036;-79
2022/01/04 09:48:19;;;;;;;99.00;11.65;;;6.50;99.90;;;;;;5100987;28;20123;-79
2022/01/04 09:50:47;;;;;;;36.72;3.95;;;6.40;99.90;;;;;;5086551;28;20074;-82
2022/01/04 09:53:19;;;;;;;9.45;1.25;;;6.40;99.90;;;;;;5104459;28;20058;-79
2022/01/04 09:55:48;;;;;;;12.98;0.90;;;6.40;99.90;;;;;;5084841;28;20138;-79
2022/01/04 09:58:13;;;;;;;6.63;0.95;;;6.40;99.90;;;;;;5100407;28;20071;-81
2022/01/04 10:00:39;;;;;;;5.43;1.20;;;6.50;99.90;;;;;;5102967;28;20484;-81
2022/01/04 10:03:14;;;;;;;9.63;1.20;;;6.40;99.90;;;;;;5103395;28;20051;-82
2022/01/04 10:05:40;;;;;;;18.15;10.18;;;6.50;99.90;;;;;;5102313;28;20487;-82
2022/01/04 10:08:08;;;;;;;9.25;3.20;;;6.40;99.90;;;;;;5100966;28;20048;-80
2022/01/04 10:10:35;;;;;;;5.88;0.93;;;6.40;99.90;;;;;;5100805;28;20040;-80
2022/01/04 10:13:08;;;;;;;8.93;1.08;;;6.40;99.90;;;;;;5103703;28;20035;-81
2022/01/04 10:15:47;;;;;;;3.78;0.38;;;6.40;99.90;;;;;;5079998;28;20035;-84
2022/01/04 10:18:13;;;;;;;6.78;0.63;;;6.40;99.90;;;;;;5099865;28;20391;-81
2022/01/04 10:20:44;;;;;;;1.63;0.20;;;6.40;99.90;;;;;;5102052;28;20040;-82
2022/01/04 10:23:14;;;;;;;4.28;0.32;;;6.30;99.90;;;;;;5103508;28;20153;-83
2022/01/04 10:25:41;;;;;;;3.42;0.25;;;6.30;99.90;;;;;;5101098;28;20047;-86
2022/01/04 10:28:07;;;;;;;1.77;0.05;;;6.30;99.90;;;;;;5100307;28;20056;-86
2022/01/04 10:30:45;;;;;;;5.22;0.47;;;6.20;99.90;;;;;;5084003;28;20043;-79
2022/01/04 10:33:13;;;;;;;4.05;0.35;;;6.10;99.90;;;;;;5102718;28;20046;-79
2022/01/04 10:35:45;;;;;;;2.78;0.57;;;6.00;99.90;;;;;;5085081;28;20050;-87
2022/01/04 10:38:26;;;;;;;2.60;0.38;;;6.00;99.90;;;;;;5083128;28;20040;-81
2022/01/04 10:41:02;;;;;;;2.53;0.20;;;5.90;99.90;;;;;;5103484;28;20035;-80
2022/01/04 10:43:30;;;;;;;4.97;0.73;;;5.90;99.90;;;;;;5086185;28;20126;-78
2022/01/04 10:45:56;;;;;;;4.05;0.40;;;5.90;99.90;;;;;;5091021;28;20132;-83
2022/01/04 10:48:29;;;;;;;3.28;0.40;;;5.80;99.90;;;;;;5099699;28;20105;-79
2022/01/04 10:50:56;;;;;;;6.43;0.73;;;5.80;99.90;;;;;;5091707;28;20059;-80
2022/01/04 10:53:26;;;;;;;4.65;0.52;;;5.80;99.90;;;;;;5098796;28;20044;-79
2022/01/04 10:56:01;;;;;;;3.90;0.85;;;5.80;99.90;;;;;;5103135;28;20425;-86
2022/01/04 10:58:45;;;;;;;2.22;0.20;;;5.60;99.90;;;;;;5103148;28;20052;-83
2022/01/04 11:01:15;;;;;;;5.63;0.30;;;5.80;99.90;;;;;;5092862;28;20058;-83
2022/01/04 11:03:46;;;;;;;5.05;0.40;;;5.80;99.90;;;;;;5100623;28;20044;-85
2022/01/04 11:06:15;;;;;;;1.80;0.30;;;5.70;99.90;;;;;;5103352;28;20043;-80
2022/01/04 11:08:42;;;;;;;5.45;0.20;;;5.70;99.90;;;;;;5104859;28;20035;-80
2022/01/04 11:11:08;;;;;;;4.57;1.10;;;5.60;99.90;;;;;;5082372;28;20043;-80
2022/01/04 11:13:34;;;;;;;33.20;12.55;;;5.60;99.90;;;;;;5081861;28;20040;-84
2022/01/04 11:16:03;;;;;;;15.23;4.28;;;5.60;99.90;;;;;;5103009;28;20035;-81
2022/01/04 11:18:30;;;;;;;7.70;0.50;;;5.80;99.90;;;;;;5102862;28;20085;-84
2022/01/04 11:20:56;;;;;;;1.65;0.30;;;5.60;99.90;;;;;;5098862;28;20051;-84
2022/01/04 11:23:28;;;;;;;4.00;0.38;;;5.50;99.90;;;;;;5098908;28;20078;-83
2022/01/04 11:25:55;;;;;;;5.03;0.70;;;5.50;99.90;;;;;;5084795;28;20402;-84
2022/01/04 11:28:22;;;;;;;5.15;0.63;;;5.40;99.90;;;;;;5101721;28;20044;-79
2022/01/04 11:30:56;;;;;;;5.07;0.50;;;5.40;99.90;;;;;;5100922;28;20040;-80
2022/01/04 11:33:27;;;;;;;4.15;0.50;;;5.40;99.90;;;;;;5081903;28;20131;-85
2022/01/04 11:35:54;;;;;;;6.03;1.42;;;5.40;99.90;;;;;;5101201;28;20044;-79
2022/01/04 11:38:30;;;;;;;4.72;0.40;;;5.40;99.90;;;;;;5102482;28;20045;-82
2022/01/04 11:40:56;;;;;;;7.97;0.57;;;5.40;99.90;;;;;;5099100;28;20052;-81
2022/01/04 11:43:38;;;;;;;2.03;0.10;;;5.40;99.90;;;;;;5097999;28;20040;-85
2022/01/04 11:46:05;;;;;;;6.45;0.50;;;5.40;99.90;;;;;;5090987;28;20094;-88
2022/01/04 11:48:40;;;;;;;3.22;0.32;;;5.40;99.90;;;;;;5099134;28;20055;-81
2022/01/04 11:51:07;;;;;;;6.30;0.50;;;5.40;99.90;;;;;;5091112;28;20043;-84
2022/01/04 11:53:34;;;;;;;3.13;0.40;;;5.30;99.90;;;;;;5098493;28;20043;-85
2022/01/04 11:56:04;;;;;;;5.90;0.30;;;5.40;99.90;;;;;;5101583;28;20043;-83
2022/01/04 11:58:50;;;;;;;6.65;0.50;;;5.40;99.90;;;;;;5102426;28;20028;-84
2022/01/04 12:01:23;;;;;;;10.10;0.80;;;5.30;99.90;;;;;;5075848;28;20040;-86
2022/01/04 12:03:50;;;;;;;6.00;0.68;;;5.40;99.90;;;;;;5082439;28;20036;-84
2022/01/04 12:06:21;;;;;;;5.63;1.02;;;5.40;99.90;;;;;;5085589;28;20046;-81
2022/01/04 12:08:51;;;;;;;3.88;0.75;;;5.40;99.90;;;;;;5101404;28;20503;-82
2022/01/04 12:11:25;;;;;;;5.90;0.73;;;5.40;99.90;;;;;;5098360;28;20044;-86
2022/01/04 12:13:52;;;;;;;3.33;0.40;;;5.40;99.90;;;;;;5101701;28;20048;-84
2022/01/04 12:16:39;;;;;;;3.90;1.30;;;5.40;99.90;;;;;;5103437;28;20487;-79
2022/01/04 12:19:09;;;;;;;4.15;0.50;;;5.40;99.90;;;;;;5081057;28;20047;-83
2022/01/04 12:21:48;;;;;;;5.85;0.60;;;5.40;99.90;;;;;;5100117;28;20041;-87
2022/01/04 12:24:20;;;;;;;5.03;0.50;;;5.40;99.90;;;;;;5090416;28;20085;-81
2022/01/04 12:26:46;;;;;;;4.57;0.73;;;5.40;99.90;;;;;;5099683;28;20139;-80
2022/01/04 12:29:11;;;;;;;3.30;0.57;;;5.50;99.90;;;;;;5105961;28;20130;-81
2022/01/04 12:31:52;;;;;;;4.88;0.80;;;5.50;99.90;;;;;;5105660;28;20102;-85
2022/01/04 12:34:27;;;;;;;10.45;1.10;;;5.50;99.90;;;;;;5078579;28;20039;-79
2022/01/04 12:36:53;;;;;;;;;;;5.40;99.90;;;;;;5087369;28;20537;-79
2022/01/04 12:39:20;;;;;;;8.32;0.60;;;5.30;99.90;;;;;;5088400;28;19919;-79
2022/01/04 12:41:48;;;;;;;6.22;0.63;;;5.40;99.90;;;;;;5088411;28;20453;-85
2022/01/04 12:44:22;;;;;;;9.15;0.90;;;5.40;99.90;;;;;;5101858;28;20040;-84
2022/01/04 12:46:48;;;;;;;9.85;1.42;;;5.30;99.90;;;;;;5085710;28;20501;-87
2022/01/04 12:49:16;;;;;;;11.27;2.10;;;5.30;99.90;;;;;;5088830;28;20042;-80
2022/01/04 12:51:47;;;;;;;6.50;0.80;;;5.30;99.90;;;;;;5105798;28;20574;-86
2022/01/04 12:54:27;;;;;;;7.10;1.00;;;5.30;99.90;;;;;;5093548;28;20044;-80
2022/01/04 12:56:56;;;;;;;14.93;1.77;;;5.30;99.90;;;;;;5103177;28;20040;-80